Time;durP1;ratioP1;P1;durP2;ratioP2;P2;SDS_P1;SDS_P2;PMS_P1;PMS_P2;Temp;Humidity;BMP_temperature;BMP_pressure;BME280_temperature;BME280_humidity;BME280_pressure;Samples;Min_cycle;Max_cycle;Signal;HPM_P1;HPM_P2
2022/09/23 00:00:17;;;;;;;2.53;2.25;;;;;;;7.07;100.00;154307.31;4924714;28;20430;-82
2022/09/23 00:02:47;;;;;;;5.38;2.55;;;;;;;7.01;100.00;154293.25;4956320;28;20026;-82
2022/09/23 00:05:13;;;;;;;5.53;2.40;;;;;;;6.97;100.00;154283.00;4948773;28;20045;-81
2022/09/23 00:07:39;;;;;;;4.18;2.30;;;;;;;6.90;100.00;154263.81;4934885;29;20027;-82
2022/09/23 00:10:06;;;;;;;7.80;2.40;;;;;;;6.92;100.00;154268.94;4960065;28;20037;-80
2022/09/23 00:12:32;;;;;;;4.40;2.50;;;;;;;6.91;100.00;154267.66;4955312;28;20027;-82
2022/09/23 00:14:58;;;;;;;3.80;2.50;;;;;;;6.80;100.00;154239.50;4936288;28;20034;-82
2022/09/23 00:17:23;;;;;;;5.53;2.60;;;;;;;6.80;100.00;154240.78;4950849;28;20035;-82
2022/09/23 00:19:49;;;;;;;6.60;2.53;;;;;;;6.85;100.00;154251.00;4933934;29;20106;-82
2022/09/23 00:22:15;;;;;;;7.63;2.53;;;;;;;6.85;100.00;154252.28;4930053;28;20048;-83
2022/09/23 00:24:41;;;;;;;3.22;2.40;;;;;;;6.80;100.00;154240.78;4946914;29;20035;-82
2022/09/23 00:27:06;;;;;;;5.32;2.50;;;;;;;6.77;100.00;154233.06;4945118;29;20050;-83
2022/09/23 00:29:32;;;;;;;4.72;2.60;;;;;;;6.90;100.00;154263.81;4945704;28;20070;-82
2022/09/23 00:31:58;;;;;;;6.57;2.63;;;;;;;6.91;100.00;154267.66;4935472;28;20039;-84
2022/09/23 00:34:23;;;;;;;3.55;2.50;;;;;;;6.89;100.00;154262.50;4956809;28;20433;-83
2022/09/23 00:36:49;;;;;;;4.35;2.13;;;;;;;6.91;100.00;154267.66;4963097;28;20126;-83
2022/09/23 00:39:14;;;;;;;6.10;2.70;;;;;;;6.92;100.00;154268.94;4944846;28;20035;-83
2022/09/23 00:41:40;;;;;;;3.97;2.42;;;;;;;6.95;100.00;154276.56;4951568;29;20505;-82
2022/09/23 00:44:45;;;;;;;4.60;2.25;;;;;;;6.89;100.00;154261.22;4935330;28;20473;-83
2022/09/23 00:47:28;;;;;;;2.25;2.00;;;;;;;6.97;100.00;154283.00;4942961;28;20027;-82
2022/09/23 00:50:09;;;;;;;;;;;;;;;7.10;100.00;154313.69;4971988;28;20059;-83
2022/09/23 00:52:36;;;;;;;2.38;2.17;;;;;;;7.12;100.00;154318.81;4947594;28;19915;-83
2022/09/23 00:55:10;;;;;;;4.28;2.33;;;;;;;7.22;100.00;154345.72;4958765;28;20031;-81
2022/09/23 00:57:38;;;;;;;4.72;2.10;;;;;;;7.19;100.00;154336.75;4944005;28;20094;-83
2022/09/23 01:00:05;;;;;;;4.90;1.90;;;;;;;7.16;100.00;154329.09;4947698;29;20043;-83
2022/09/23 01:02:31;;;;;;;4.72;2.17;;;;;;;7.28;100.00;154358.53;4968620;28;20431;-81
2022/09/23 01:04:58;;;;;;;3.95;1.90;;;;;;;7.35;100.00;154377.72;4925054;29;20086;-82
2022/09/23 01:07:23;;;;;;;5.03;1.88;;;;;;;7.26;100.00;154353.41;4936648;28;20035;-83
2022/09/23 01:09:49;;;;;;;3.75;2.20;;;;;;;7.28;100.00;154358.53;4967407;28;20470;-83
2022/09/23 01:12:32;;;;;;;3.42;2.00;;;;;;;7.26;100.00;154353.41;4960666;28;20513;-82
2022/09/23 01:15:07;;;;;;;4.43;1.80;;;;;;;7.15;100.00;154326.50;4944935;29;20077;-83
2022/09/23 01:17:46;;;;;;;3.45;2.33;;;;;;;7.09;100.00;154311.16;4959046;28;20030;-82
2022/09/23 01:20:34;;;;;;;2.65;2.00;;;;;;;6.96;100.00;154280.44;4944707;28;20047;-81
2022/09/23 01:23:06;;;;;;;2.90;2.20;;;;;;;6.95;100.00;154276.56;4954512;28;20115;-82
2022/09/23 01:25:46;;;;;;;2.90;2.00;;;;;;;6.99;100.00;154286.84;4965385;28;20038;-81
2022/09/23 01:28:32;;;;;;;3.25;2.20;;;;;;;7.07;100.00;154307.31;4942382;28;20035;-79
2022/09/23 01:31:27;;;;;;;4.60;2.30;;;;;;;7.03;100.00;154297.09;4947260;29;20051;-81
2022/09/23 01:34:02;;;;;;;2.85;2.05;;;;;;;6.85;100.00;154251.00;4938978;29;20062;-80
2022/09/23 01:37:03;;;;;;;5.70;2.40;;;;;;;6.67;100.00;154206.19;4948153;28;20047;-77
2022/09/23 01:39:40;;;;;;;4.35;1.80;;;;;;;6.63;100.00;154198.53;4942757;28;20156;-81
2022/09/23 01:42:25;;;;;;;5.93;2.22;;;;;;;6.61;100.00;154192.13;4962260;28;20130;-81
2022/09/23 01:44:58;;;;;;;2.03;1.83;;;;;;;6.72;100.00;154219.00;4940823;28;20520;-80
2022/09/23 01:47:33;;;;;;;2.65;1.92;;;;;;;6.93;100.00;154271.47;4951274;28;20071;-82
2022/09/23 01:53:11;;;;;;;3.47;1.90;;;;;;;6.99;100.00;154286.84;4967696;28;20050;-78
2022/09/23 01:55:43;;;;;;;5.65;1.73;;;;;;;7.15;100.00;154327.78;4947194;28;20034;-80
2022/09/23 01:58:14;;;;;;;3.22;1.92;;;;;;;7.22;100.00;154345.72;4953289;29;20039;-80
2022/09/23 02:00:47;;;;;;;2.28;1.83;;;;;;;7.16;100.00;154329.09;4930678;29;20606;-80
2022/09/23 02:03:31;;;;;;;3.72;1.90;;;;;;;7.27;100.00;154357.25;4956966;28;20111;-80
2022/09/23 02:06:17;;;;;;;2.83;1.77;;;;;;;7.31;100.00;154366.19;4962842;28;20051;-80
2022/09/23 02:08:59;;;;;;;4.57;1.95;;;;;;;7.36;100.00;154379.00;4918650;29;20039;-79
2022/09/23 02:11:25;;;;;;;2.87;1.90;;;;;;;7.35;100.00;154376.47;4932992;28;20043;-81
2022/09/23 02:14:00;;;;;;;3.08;1.80;;;;;;;7.37;100.00;154382.84;4934343;29;20313;-80
2022/09/23 02:16:47;;;;;;;4.25;1.90;;;;;;;7.28;100.00;154358.53;4944847;28;20111;-83
2022/09/23 02:19:17;;;;;;;3.30;1.65;;;;;;;7.36;100.00;154380.25;4958325;28;20039;-81
2022/09/23 02:21:47;;;;;;;3.95;2.00;;;;;;;7.28;100.00;154358.53;4949669;28;20114;-81
2022/09/23 02:24:18;;;;;;;2.58;1.67;;;;;;;7.24;100.00;154348.28;4954734;28;21049;-82
2022/09/23 02:27:22;;;;;;;2.20;1.98;;;;;;;7.10;100.00;154315.03;4939554;29;20043;-81
2022/09/23 02:29:56;;;;;;;2.75;1.60;;;;;;;7.03;100.00;154297.09;4929380;29;20104;-83
2022/09/23 02:32:30;;;;;;;6.00;1.67;;;;;;;7.04;100.00;154299.63;4933135;28;20086;-82
2022/09/23 02:35:18;;;;;;;3.05;1.73;;;;;;;7.08;100.00;154308.59;4962435;28;20054;-81
2022/09/23 02:38:30;;;;;;;4.82;1.70;;;;;;;7.00;100.00;154290.66;4953847;28;20059;-81
2022/09/23 02:41:03;;;;;;;4.50;2.05;;;;;;;6.93;100.00;154272.78;4941063;29;20047;-82
2022/09/23 02:43:35;;;;;;;5.05;1.90;;;;;;;6.77;100.00;154231.81;4929060;28;20043;-83
2022/09/23 02:46:03;;;;;;;3.15;1.92;;;;;;;6.56;100.00;154180.63;4964863;28;20047;-82
2022/09/23 02:48:39;;;;;;;6.18;1.85;;;;;;;6.49;100.00;154161.44;4973985;28;20043;-80
2022/09/23 02:51:05;;;;;;;4.50;1.90;;;;;;;6.51;100.00;154166.53;4978825;28;20057;-79
2022/09/23 02:53:33;;;;;;;2.92;1.77;;;;;;;6.48;100.00;154158.84;4985986;28;20370;-81
2022/09/23 02:56:00;;;;;;;2.45;1.77;;;;;;;6.49;100.00;154161.44;4961178;29;20062;-79
2022/09/23 02:58:27;;;;;;;2.17;1.75;;;;;;;6.49;100.00;154161.44;4935315;28;20051;-80
2022/09/23 03:01:00;;;;;;;2.60;1.65;;;;;;;6.48;100.00;154158.84;4933865;29;20038;-80
2022/09/23 03:03:38;;;;;;;2.10;1.90;;;;;;;6.35;100.00;154126.91;4961052;28;20040;-81
2022/09/23 03:06:32;;;;;;;2.05;1.85;;;;;;;6.37;100.00;154133.28;4955661;28;20134;-80
2022/09/23 03:09:13;;;;;;;3.90;2.10;;;;;;;6.30;100.00;154114.09;4934810;29;20098;-81
2022/09/23 03:11:47;;;;;;;3.88;1.95;;;;;;;6.30;100.00;154114.09;4934694;29;20039;-81
2022/09/23 03:14:25;;;;;;;8.68;2.00;;;;;;;6.39;100.00;154137.13;4939382;28;20038;-81
2022/09/23 03:16:50;;;;;;;3.90;1.80;;;;;;;6.59;100.00;154187.00;4956537;28;20509;-81
2022/09/23 03:19:43;;;;;;;4.00;2.08;;;;;;;6.65;100.00;154201.06;4954418;28;20075;-81
2022/09/23 03:22:17;;;;;;;7.20;1.85;;;;;;;6.69;100.00;154211.34;4966675;28;20053;-82
2022/09/23 03:24:44;;;;;;;3.50;1.98;;;;;;;6.64;100.00;154199.81;4931087;29;20144;-82
2022/09/23 03:27:16;;;;;;;3.65;2.13;;;;;;;6.64;100.00;154199.81;4952718;28;20050;-81
2022/09/23 03:29:46;;;;;;;5.17;1.90;;;;;;;6.58;100.00;154185.72;4943588;29;20050;-81
2022/09/23 03:32:18;;;;;;;3.50;2.08;;;;;;;6.55;100.00;154176.78;4943315;28;20288;-82
2022/09/23 03:34:47;;;;;;;3.47;2.38;;;;;;;6.50;100.00;154163.97;4934492;29;20059;-82
2022/09/23 03:37:19;;;;;;;4.50;2.20;;;;;;;6.52;100.00;154170.38;4941603;28;20038;-82
2022/09/23 03:39:55;;;;;;;2.25;2.05;;;;;;;6.50;100.00;154165.28;4961953;28;20045;-82
2022/09/23 03:42:25;;;;;;;4.88;1.90;;;;;;;6.54;100.00;154174.25;4960242;28;20122;-83
2022/09/23 03:44:53;;;;;;;2.65;2.08;;;;;;;6.58;100.00;154184.47;4941634;29;20085;-81
2022/09/23 03:47:20;;;;;;;8.52;1.98;;;;;;;6.61;100.00;154192.13;4941496;28;20035;-81
2022/09/23 03:49:48;;;;;;;5.32;2.00;;;;;;;6.54;100.00;154175.50;4945783;29;20114;-78
2022/09/23 03:52:15;;;;;;;2.67;2.20;;;;;;;6.61;100.00;154192.13;4958454;28;20039;-81
2022/09/23 03:54:41;;;;;;;4.90;1.95;;;;;;;6.62;100.00;154195.97;4952068;28;20042;-81
2022/09/23 03:57:06;;;;;;;2.58;2.38;;;;;;;6.61;100.00;154193.44;4957318;28;20397;-81
2022/09/23 03:59:32;;;;;;;3.33;2.10;;;;;;;6.65;100.00;154201.06;4946505;28;20039;-81
2022/09/23 04:01:58;;;;;;;3.83;2.03;;;;;;;6.64;100.00;154199.81;4943738;29;20035;-79
2022/09/23 04:04:26;;;;;;;2.60;1.75;;;;;;;6.67;100.00;154206.19;4944669;28;20039;-81
2022/09/23 04:06:53;;;;;;;3.75;2.10;;;;;;;6.81;100.00;154242.03;4929461;29;20413;-82
2022/09/23 04:09:20;;;;;;;3.58;1.80;;;;;;;6.70;100.00;154213.88;4960637;28;20433;-81
2022/09/23 04:11:48;;;;;;;5.90;1.92;;;;;;;6.81;100.00;154243.31;4946657;29;20050;-80
2022/09/23 04:14:14;;;;;;;2.45;1.90;;;;;;;6.76;100.00;154230.53;4935161;28;20041;-80
2022/09/23 04:16:39;;;;;;;2.75;1.90;;;;;;;6.69;100.00;154211.34;4946038;28;20047;-81
2022/09/23 04:19:05;;;;;;;6.82;2.10;;;;;;;6.61;100.00;154192.13;4941084;28;20035;-80
2022/09/23 04:21:31;;;;;;;2.63;1.88;;;;;;;6.68;100.00;154208.78;4961284;28;20042;-81
2022/09/23 04:23:57;;;;;;;3.25;2.10;;;;;;;6.67;100.00;154206.19;4968916;28;20045;-80
2022/09/23 04:26:22;;;;;;;2.40;1.80;;;;;;;6.61;100.00;154193.44;4962632;28;20126;-80
2022/09/23 04:28:48;;;;;;;3.00;1.88;;;;;;;6.69;100.00;154211.34;4961794;28;20409;-81
2022/09/23 04:31:14;;;;;;;3.63;2.08;;;;;;;6.67;100.00;154206.19;4944018;28;20587;-81
2022/09/23 04:33:39;;;;;;;8.07;2.08;;;;;;;6.60;100.00;154189.59;4961989;28;20476;-80
2022/09/23 04:36:05;;;;;;;5.85;2.10;;;;;;;6.59;100.00;154187.00;4946033;29;20047;-81
2022/09/23 04:38:31;;;;;;;1.95;1.75;;;;;;;6.55;100.00;154176.78;4960991;28;20494;-80
2022/09/23 04:40:57;;;;;;;2.70;2.10;;;;;;;6.52;100.00;154170.38;4944835;29;20413;-81
2022/09/23 04:43:22;;;;;;;3.38;2.20;;;;;;;6.40;100.00;154140.97;4964285;28;20390;-81
2022/09/23 04:45:59;;;;;;;2.35;2.10;;;;;;;6.51;100.00;154166.53;4960288;28;20070;-81
2022/09/23 04:48:25;;;;;;;7.95;2.35;;;;;;;6.37;100.00;154133.28;4942735;28;20844;-80
2022/09/23 04:50:50;;;;;;;3.13;2.00;;;;;;;6.49;100.00;154162.69;4945145;29;20031;-81
2022/09/23 04:53:16;;;;;;;2.20;1.98;;;;;;;6.68;100.00;154208.78;4941608;28;20102;-81
2022/09/23 04:55:42;;;;;;;3.67;2.13;;;;;;;6.81;100.00;154243.31;4925997;29;20047;-80
2022/09/23 04:58:08;;;;;;;2.60;1.98;;;;;;;6.90;100.00;154265.09;4946558;29;20126;-80
2022/09/23 05:00:35;;;;;;;2.72;1.95;;;;;;;7.13;100.00;154322.66;4949841;28;20039;-81
2022/09/23 05:03:00;;;;;;;3.13;1.88;;;;;;;7.19;100.00;154336.75;4947145;29;20078;-82
2022/09/23 05:05:26;;;;;;;3.53;2.17;;;;;;;7.28;100.00;154359.78;4925617;28;20126;-81
2022/09/23 05:07:54;;;;;;;2.65;1.90;;;;;;;7.34;100.00;154375.16;4930140;29;20509;-80
2022/09/23 05:10:21;;;;;;;3.58;1.70;;;;;;;7.40;100.00;154389.22;4941284;28;20071;-80
2022/09/23 05:12:47;;;;;;;3.97;1.90;;;;;;;7.40;100.00;154390.53;4943497;29;20032;-81
2022/09/23 05:15:14;;;;;;;4.03;2.00;;;;;;;7.40;100.00;154389.22;4942924;28;20047;-80
2022/09/23 05:17:39;;;;;;;5.28;1.77;;;;;;;7.36;100.00;154379.00;4940214;29;20027;-81
2022/09/23 05:20:05;;;;;;;3.95;2.00;;;;;;;7.40;100.00;154390.53;4951370;28;20031;-80
2022/09/23 05:22:31;;;;;;;1.77;1.65;;;;;;;7.44;100.00;154399.50;4949369;28;20031;-81
2022/09/23 05:24:58;;;;;;;3.08;1.98;;;;;;;7.53;100.00;154422.50;4947113;29;20113;-81
2022/09/23 05:27:24;;;;;;;5.43;2.00;;;;;;;7.55;100.00;154427.69;4940839;28;20039;-81
2022/09/23 05:29:51;;;;;;;2.65;2.03;;;;;;;7.43;100.00;154396.94;4938669;29;20043;-80
2022/09/23 05:32:16;;;;;;;5.18;2.67;;;;;;;7.58;100.00;154435.31;4955161;28;20055;-81
2022/09/23 05:34:42;;;;;;;4.82;2.80;;;;;;;7.64;100.00;154449.41;4940222;29;20067;-80
2022/09/23 05:37:07;;;;;;;2.22;2.03;;;;;;;7.65;100.00;154450.69;4955514;28;20035;-80
2022/09/23 05:39:33;;;;;;;5.95;2.33;;;;;;;7.65;100.00;154450.69;4940641;28;20117;-79
2022/09/23 05:41:59;;;;;;;3.55;2.03;;;;;;;7.66;100.00;154454.53;4925274;29;20046;-80
2022/09/23 05:44:25;;;;;;;4.75;2.13;;;;;;;7.78;100.00;154484.03;4918251;28;20853;-80
2022/09/23 05:46:51;;;;;;;6.43;2.42;;;;;;;7.87;100.00;154505.75;4962796;28;20400;-80
2022/09/23 05:49:16;;;;;;;7.13;2.42;;;;;;;7.82;100.00;154494.25;4924035;28;20035;-80
2022/09/23 05:51:42;;;;;;;5.88;2.80;;;;;;;7.86;100.00;154504.50;4940000;28;20133;-80
2022/09/23 05:54:08;;;;;;;3.13;2.28;;;;;;;7.92;100.00;154519.84;4941185;28;20067;-80
2022/09/23 05:56:34;;;;;;;2.88;1.92;;;;;;;7.95;100.00;154526.28;4928409;28;20039;-79
2022/09/23 05:59:01;;;;;;;2.63;1.85;;;;;;;7.95;100.00;154527.56;4934202;28;20034;-80
2022/09/23 06:01:32;;;;;;;2.72;2.10;;;;;;;7.98;100.00;154535.22;4940504;28;20042;-81
2022/09/23 06:03:59;;;;;;;3.15;1.85;;;;;;;7.98;100.00;154535.22;4947436;29;20035;-81
2022/09/23 06:06:30;;;;;;;5.97;2.10;;;;;;;7.99;100.00;154537.78;4940021;28;20211;-80
2022/09/23 06:08:58;;;;;;;3.75;1.83;;;;;;;7.98;100.00;154535.22;4954218;28;20038;-80
2022/09/23 06:11:24;;;;;;;4.53;2.10;;;;;;;8.03;100.00;154545.50;4946850;28;20039;-80
2022/09/23 06:13:54;;;;;;;6.25;2.00;;;;;;;8.04;100.00;154549.28;4955355;28;20035;-80
2022/09/23 06:16:19;;;;;;;4.60;2.08;;;;;;;7.97;100.00;154531.41;4960769;28;20035;-80
2022/09/23 06:18:45;;;;;;;4.45;2.00;;;;;;;8.00;100.00;154539.06;4954929;28;20413;-80
2022/09/23 06:21:16;;;;;;;2.65;2.00;;;;;;;8.11;100.00;154567.22;4939549;28;20035;-80
2022/09/23 06:23:42;;;;;;;3.63;2.03;;;;;;;8.11;100.00;154567.22;4967430;28;20027;-80
2022/09/23 06:26:10;;;;;;;5.80;2.70;;;;;;;8.12;100.00;154568.56;4957250;28;20074;-80
2022/09/23 06:28:38;;;;;;;4.13;2.13;;;;;;;8.13;100.00;154571.09;4940162;28;20034;-80
2022/09/23 06:31:15;;;;;;;4.90;2.13;;;;;;;8.07;100.00;154555.72;4931642;28;20038;-81
2022/09/23 06:33:44;;;;;;;3.72;2.10;;;;;;;8.07;100.00;154557.00;4921573;28;20046;-80
2022/09/23 06:36:12;;;;;;;6.50;2.33;;;;;;;8.12;100.00;154568.56;4962344;28;20035;-80
2022/09/23 06:38:40;;;;;;;4.03;2.42;;;;;;;8.05;100.00;154550.59;4923878;29;20036;-80
2022/09/23 06:41:06;;;;;;;5.00;2.10;;;;;;;8.08;100.00;154558.25;4930466;29;20050;-80
2022/09/23 06:43:32;;;;;;;4.35;2.13;;;;;;;8.10;100.00;154563.38;4964273;28;20027;-79
2022/09/23 06:46:00;;;;;;;4.82;2.03;;;;;;;8.08;100.00;154558.25;4928933;28;20378;-80
2022/09/23 06:48:26;;;;;;;6.15;2.30;;;;;;;8.04;100.00;154548.03;4945916;28;20048;-80
2022/09/23 06:50:53;;;;;;;4.20;2.45;;;;;;;8.09;100.00;154560.84;4953111;28;20044;-80
2022/09/23 06:53:23;;;;;;;2.85;2.38;;;;;;;8.09;100.00;154560.84;4943937;28;20031;-82
2022/09/23 06:56:01;;;;;;;4.65;2.35;;;;;;;8.13;100.00;154571.09;4947549;29;20042;-82
2022/09/23 06:58:27;;;;;;;5.72;2.53;;;;;;;8.19;100.00;154587.75;4947941;28;20035;-82
2022/09/23 07:00:59;;;;;;;3.13;2.00;;;;;;;8.21;100.00;154591.56;4941607;29;20047;-82
2022/09/23 07:03:24;;;;;;;5.15;2.17;;;;;;;8.26;100.00;154603.13;4924295;28;20110;-79
2022/09/23 07:05:54;;;;;;;4.22;2.30;;;;;;;8.22;100.00;154592.88;4939657;29;20035;-80
2022/09/23 07:08:19;;;;;;;4.90;2.35;;;;;;;8.30;100.00;154613.34;4939876;28;20405;-79
2022/09/23 07:10:50;;;;;;;4.28;2.25;;;;;;;8.41;100.00;154641.53;4957334;28;20537;-80
2022/09/23 07:13:16;;;;;;;5.00;2.10;;;;;;;8.51;100.00;154665.94;4963919;28;20043;-80
2022/09/23 07:15:41;;;;;;;3.13;2.13;;;;;;;8.55;100.00;154677.47;4939914;28;20038;-82
2022/09/23 07:18:07;;;;;;;2.97;2.20;;;;;;;8.67;100.00;154705.66;4947449;29;20046;-80
2022/09/23 07:20:33;;;;;;;4.68;2.25;;;;;;;8.80;100.00;154737.66;4937535;28;20070;-80
2022/09/23 07:22:58;;;;;;;6.50;2.10;;;;;;;8.96;100.00;154779.97;4928443;28;20065;-80
2022/09/23 07:25:24;;;;;;;4.93;2.30;;;;;;;9.15;100.00;154826.09;4933633;28;20039;-81
2022/09/23 07:27:49;;;;;;;5.22;2.40;;;;;;;9.36;100.00;154878.66;4940043;29;20137;-81
2022/09/23 07:30:15;;;;;;;4.30;1.80;;;;;;;9.61;100.00;154941.50;4940280;28;20063;-80
2022/09/23 07:32:41;;;;;;;2.08;1.70;;;;;;;9.65;100.00;154951.75;4935519;29;20056;-81
2022/09/23 07:35:07;;;;;;;5.13;1.77;;;;;;;9.75;100.00;154976.09;4921285;29;20039;-81
2022/09/23 07:37:33;;;;;;;5.20;2.13;;;;;;;9.93;100.00;155022.28;4943009;28;20485;-79
2022/09/23 07:39:59;;;;;;;4.07;1.85;;;;;;;10.21;100.00;155090.22;4962978;28;20046;-81
2022/09/23 07:42:24;;;;;;;2.22;1.90;;;;;;;10.39;100.00;155136.47;4960943;28;20095;-81
2022/09/23 07:44:50;;;;;;;4.65;2.13;;;;;;;10.52;100.00;155168.56;4952936;28;20035;-80
2022/09/23 07:47:16;;;;;;;3.10;1.90;;;;;;;10.58;100.00;155183.94;4923245;28;20122;-81
2022/09/23 07:49:41;;;;;;;3.40;1.80;;;;;;;10.69;100.00;155212.16;4938333;29;20602;-82
2022/09/23 07:52:06;;;;;;;4.93;1.80;;;;;;;10.90;100.00;155263.50;4962802;28;20054;-79
2022/09/23 07:54:32;;;;;;;3.28;1.83;;;;;;;11.01;100.00;155291.72;4955523;28;20035;-80
2022/09/23 07:56:58;;;;;;;2.92;1.52;;;;;;;10.93;100.00;155271.22;4955560;28;20397;-81
2022/09/23 07:59:26;;;;;;;3.00;1.48;;;;;;;11.19;100.00;155335.34;4944930;28;20545;-81
2022/09/23 08:01:52;;;;;;;2.85;1.65;;;;;;;11.30;100.00;155364.91;4928775;28;20098;-81
2022/09/23 08:04:30;;;;;;;3.25;1.65;;;;;;;11.30;100.00;155364.91;4926792;29;20569;-81
2022/09/23 08:06:58;;;;;;;2.67;1.50;;;;;;;11.47;100.00;155407.25;4938378;28;20038;-81
2022/09/23 08:09:26;;;;;;;4.10;1.70;;;;;;;11.48;100.00;155408.53;4955208;28;20749;-81
2022/09/23 08:11:52;;;;;;;3.70;2.10;;;;;;;11.50;100.00;155414.94;4961298;28;20138;-81
2022/09/23 08:14:18;;;;;;;3.60;1.63;;;;;;;11.48;100.00;155408.53;4960834;28;20062;-80
2022/09/23 08:16:45;;;;;;;3.65;1.90;;;;;;;11.56;100.00;155427.78;4924575;29;20027;-82
2022/09/23 08:19:11;;;;;;;2.58;1.67;;;;;;;11.62;100.00;155443.16;4937704;28;20414;-80
2022/09/23 08:21:38;;;;;;;2.25;1.70;;;;;;;11.72;100.00;155468.88;4948453;28;20066;-81
2022/09/23 08:24:06;;;;;;;3.45;1.90;;;;;;;11.71;100.00;155465.00;4933757;29;20048;-81
2022/09/23 08:26:33;;;;;;;2.97;1.52;;;;;;;11.83;100.00;155497.13;4958719;28;20469;-81
2022/09/23 08:28:59;;;;;;;3.42;1.73;;;;;;;11.85;100.00;155500.97;4949716;29;20054;-81
2022/09/23 08:31:25;;;;;;;6.43;1.48;;;;;;;11.93;100.00;155521.56;4939594;28;20047;-80
2022/09/23 08:33:57;;;;;;;4.38;1.80;;;;;;;11.96;99.98;155527.97;4937860;29;20098;-82
2022/09/23 08:36:24;;;;;;;2.22;1.50;;;;;;;12.05;100.00;155551.06;4961689;28;20413;-81
2022/09/23 08:38:50;;;;;;;4.28;1.70;;;;;;;11.91;100.00;155515.16;4975402;28;20070;-80
2022/09/23 08:41:38;;;;;;;2.10;1.40;;;;;;;12.05;100.00;155552.41;4952212;28;20657;-81
2022/09/23 08:44:30;;;;;;;5.90;1.40;;;;;;;12.25;99.07;155601.19;4926493;29;20027;-82
2022/09/23 08:47:12;;;;;;;2.90;1.80;;;;;;;12.31;98.44;155616.56;4960835;28;20047;-82
2022/09/23 08:49:46;;;;;;;2.40;1.65;;;;;;;12.54;98.05;155674.38;4943819;29;20039;-81
2022/09/23 08:52:21;;;;;;;3.90;1.65;;;;;;;12.53;98.87;155670.56;4964563;28;20113;-80
2022/09/23 08:54:47;;;;;;;2.80;1.58;;;;;;;12.59;97.70;155687.22;4975463;28;20066;-81
2022/09/23 08:57:33;;;;;;;3.60;1.63;;;;;;;12.82;96.66;155743.75;4965794;28;20035;-79
2022/09/23 09:00:01;;;;;;;1.88;1.40;;;;;;;13.01;95.52;155791.28;4947130;28;20035;-81
2022/09/23 09:02:28;;;;;;;3.88;1.40;;;;;;;13.01;95.39;155792.56;4942334;28;20055;-81
2022/09/23 09:04:59;;;;;;;7.50;1.83;;;;;;;13.08;93.38;155809.28;4946662;29;20039;-80
2022/09/23 09:07:29;;;;;;;3.72;1.50;;;;;;;13.27;93.96;155855.56;4943852;28;20071;-81
2022/09/23 09:10:17;;;;;;;3.47;1.45;;;;;;;13.30;95.17;155863.22;4966465;28;20377;-80
2022/09/23 09:12:46;;;;;;;3.42;1.40;;;;;;;13.49;94.15;155912.16;4960001;28;20031;-81
2022/09/23 09:15:14;;;;;;;4.00;1.48;;;;;;;13.61;94.02;155942.97;4941227;28;20043;-80
2022/09/23 09:17:47;;;;;;;3.42;1.58;;;;;;;13.69;92.17;155960.97;4947730;28;20062;-81
2022/09/23 09:20:37;;;;;;;2.53;1.35;;;;;;;13.74;91.65;155975.13;4958132;28;20406;-80
2022/09/23 09:23:42;;;;;;;4.65;1.70;;;;;;;13.92;91.14;156018.81;4950081;28;20444;-80
2022/09/23 09:26:18;;;;;;;3.15;1.35;;;;;;;13.83;92.15;155998.25;4942304;28;20189;-80
2022/09/23 09:28:50;;;;;;;3.10;1.50;;;;;;;13.91;92.50;156016.25;4954140;28;20031;-80
2022/09/23 09:31:34;;;;;;;2.40;1.53;;;;;;;14.00;91.61;156040.69;4963553;28;20413;-80
2022/09/23 09:34:21;;;;;;;4.93;1.70;;;;;;;14.19;90.35;156086.97;4955392;28;20320;-80
2022/09/23 09:37:05;;;;;;;4.22;1.70;;;;;;;14.31;90.54;156117.81;4955856;28;20189;-79
2022/09/23 09:39:30;;;;;;;2.85;1.23;;;;;;;14.34;89.96;156125.56;4945751;28;21263;-80
2022/09/23 09:41:58;;;;;;;4.40;1.65;;;;;;;14.36;90.00;156129.41;4951246;28;20046;-81
2022/09/23 09:44:39;;;;;;;6.45;1.50;;;;;;;14.63;88.88;156197.59;4962444;28;20043;-80
2022/09/23 09:47:30;;;;;;;5.22;1.52;;;;;;;14.87;87.29;156256.78;4958420;28;20035;-82
2022/09/23 09:50:05;;;;;;;3.75;1.48;;;;;;;14.89;86.56;156261.94;4970951;28;20490;-80
2022/09/23 09:52:31;;;;;;;2.22;1.40;;;;;;;14.95;86.64;156278.63;4958162;28;20039;-80
2022/09/23 09:55:13;;;;;;;1.50;1.20;;;;;;;15.11;86.95;156317.28;4964386;28;20039;-82
2022/09/23 09:58:00;;;;;;;2.80;1.25;;;;;;;15.11;85.52;156317.28;4926891;28;20426;-81
2022/09/23 10:00:26;;;;;;;3.55;1.30;;;;;;;15.13;81.68;156322.41;4955677;28;20113;-81
2022/09/23 10:02:54;;;;;;;4.03;1.30;;;;;;;15.06;82.62;156305.66;4955615;28;20506;-81
2022/09/23 10:05:32;;;;;;;4.30;1.10;;;;;;;15.08;82.61;156309.53;4956844;28;20063;-81
2022/09/23 10:08:23;;;;;;;1.95;1.20;;;;;;;15.26;81.77;156354.59;4947366;29;20370;-80
2022/09/23 10:10:53;;;;;;;2.45;1.45;;;;;;;15.35;80.67;156377.69;4958124;28;20041;-80
2022/09/23 10:13:25;;;;;;;3.60;1.20;;;;;;;15.45;82.93;156403.47;4961563;28;20046;-82
2022/09/23 10:15:53;;;;;;;3.63;1.10;;;;;;;15.63;80.18;156447.19;4953361;28;20042;-81
2022/09/23 10:18:33;;;;;;;2.08;1.15;;;;;;;15.78;79.91;156485.84;4967840;28;20744;-82
2022/09/23 10:21:14;;;;;;;1.52;1.10;;;;;;;16.10;78.90;156566.94;4956648;28;20102;-81
2022/09/23 10:24:00;;;;;;;1.58;1.10;;;;;;;16.53;77.26;156675.09;4947480;28;20117;-81
2022/09/23 10:26:29;;;;;;;1.90;1.20;;;;;;;16.67;77.35;156708.56;4926355;28;20073;-81
2022/09/23 10:28:57;;;;;;;6.57;1.23;;;;;;;16.91;75.55;156769.13;4964774;28;20053;-81
2022/09/23 10:31:33;;;;;;;3.10;1.10;;;;;;;17.13;76.37;156824.53;4960033;28;20046;-80
2022/09/23 10:34:01;;;;;;;1.30;1.10;;;;;;;17.16;70.83;156832.28;4959904;28;20102;-80
2022/09/23 10:36:29;;;;;;;1.90;0.90;;;;;;;17.22;72.71;156847.72;4969068;28;20118;-85
2022/09/23 10:48:41;;;;;;;2.35;1.02;;;;;;;17.51;68.41;156921.13;4960273;28;20039;-82
2022/09/23 10:51:19;;;;;;;1.95;1.00;;;;;;;17.62;69.16;156948.19;4964224;28;20046;-82
2022/09/23 10:53:48;;;;;;;3.33;0.90;;;;;;;17.53;68.34;156925.00;4932367;28;20031;-84
2022/09/23 10:56:41;;;;;;;1.38;0.90;;;;;;;17.63;70.72;156950.78;4943140;28;20490;-85
2022/09/23 10:59:10;;;;;;;1.13;0.90;;;;;;;17.64;72.24;156953.34;4942566;28;20050;-84
2022/09/23 11:01:57;;;;;;;2.03;1.20;;;;;;;17.73;68.54;156974.00;4958005;28;20046;-83
2022/09/23 11:05:02;;;;;;;3.22;0.90;;;;;;;17.72;68.61;156972.66;4961461;28;20035;-86
2022/09/23 11:07:39;;;;;;;2.13;1.00;;;;;;;17.68;68.24;156962.38;4918795;28;20058;-84
2022/09/23 11:10:20;;;;;;;1.80;0.65;;;;;;;17.76;70.90;156981.69;4969112;28;20047;-81
2022/09/23 11:13:08;;;;;;;1.65;0.90;;;;;;;17.60;69.93;156943.03;4967852;28;20054;-82
2022/09/23 11:16:01;;;;;;;5.50;0.90;;;;;;;17.59;68.50;156939.16;4962593;28;20054;-82
2022/09/23 11:18:42;;;;;;;2.35;0.80;;;;;;;17.62;68.58;156946.91;4950647;28;20039;-82
2022/09/23 11:21:22;;;;;;;3.60;0.93;;;;;;;17.61;68.64;156945.66;4958366;28;20043;-81
2022/09/23 11:24:05;;;;;;;4.30;1.00;;;;;;;17.57;68.43;156935.31;4946541;29;20028;-83
2022/09/23 11:27:13;;;;;;;1.58;0.90;;;;;;;17.60;69.98;156943.03;4944613;28;20039;-79
2022/09/23 11:30:02;;;;;;;1.33;0.90;;;;;;;17.46;66.83;156906.97;4931215;28;20046;-82
2022/09/23 11:32:55;;;;;;;2.28;0.70;;;;;;;17.42;67.89;156896.66;4966333;28;20036;-82
2022/09/23 11:35:26;;;;;;;2.83;1.02;;;;;;;17.45;70.74;156904.41;4934673;28;20102;-81
2022/09/23 11:37:57;;;;;;;3.33;0.95;;;;;;;17.59;71.64;156939.16;4924201;29;20070;-81
2022/09/23 11:40:33;;;;;;;0.95;0.80;;;;;;;17.61;69.92;156944.31;4952545;28;20036;-81
2022/09/23 11:43:06;;;;;;;1.80;0.60;;;;;;;17.60;67.89;156943.03;4963820;28;20105;-80
2022/09/23 11:45:49;;;;;;;1.73;0.70;;;;;;;17.65;70.17;156954.63;4961082;28;20035;-83
2022/09/23 11:48:26;;;;;;;1.52;0.63;;;;;;;17.66;68.10;156957.22;4959501;28;20043;-81
2022/09/23 11:51:05;;;;;;;2.53;0.80;;;;;;;17.68;68.80;156963.63;4952695;28;20128;-80
2022/09/23 11:54:02;;;;;;;6.80;0.98;;;;;;;17.53;68.74;156925.00;4969137;28;20035;-81
2022/09/23 11:56:34;;;;;;;2.60;1.35;;;;;;;17.55;66.95;156928.88;4952010;28;20058;-81
2022/09/23 11:59:19;;;;;;;2.05;1.13;;;;;;;17.44;70.41;156901.81;4966018;28;20039;-83